createdAt,value
2023-04-15T00:00:58.567Z,7.0
2023-04-15T00:05:58.382Z,7.5
2023-04-15T00:07:33.230Z,7.5
2023-04-15T00:10:58.313Z,7.0
2023-04-15T00:25:58.477Z,7.5
2023-04-15T00:30:58.575Z,7.0
2023-04-15T00:35:58.533Z,7.5
2023-04-15T01:05:58.888Z,7.0
2023-04-15T01:07:38.625Z,7.0
2023-04-15T01:10:58.803Z,7.5
2023-04-15T01:15:58.995Z,7.0
2023-04-15T01:25:58.994Z,7.5
2023-04-15T01:45:59.166Z,7.0
2023-04-15T02:00:59.317Z,7.5
2023-04-15T02:07:44.131Z,7.5
2023-04-15T02:50:59.792Z,7.0
2023-04-15T03:05:55.207Z,7.0
2023-04-15T03:11:00.026Z,7.5
2023-04-15T03:26:00.147Z,7.0
2023-04-15T03:31:00.255Z,7.5
2023-04-15T03:41:00.283Z,7.0
2023-04-15T03:51:00.369Z,7.5
2023-04-15T04:01:00.550Z,7.0
2023-04-15T04:05:52.393Z,7.0
2023-04-15T04:11:00.567Z,7.5
2023-04-15T04:16:00.754Z,7.0
2023-04-15T04:26:00.797Z,7.5
2023-04-15T04:31:00.862Z,7.0
2023-04-15T04:41:00.843Z,7.5
2023-04-15T04:51:00.957Z,7.0
2023-04-15T05:05:57.918Z,7.0
2023-04-15T05:21:01.365Z,7.0
2023-04-15T05:46:01.655Z,6.5
2023-04-15T05:56:01.666Z,7.0
2023-04-15T06:06:03.532Z,7.0
2023-04-15T06:21:01.854Z,7.5
2023-04-15T06:41:02.008Z,7.0
2023-04-15T06:56:02.263Z,7.5
2023-04-15T07:06:08.940Z,7.5
2023-04-15T07:11:02.363Z,7.0
2023-04-15T07:21:02.821Z,7.5
2023-04-15T07:36:02.623Z,7.0
2023-04-15T07:46:02.676Z,7.5
2023-04-15T07:56:02.774Z,7.0
2023-04-15T08:06:02.866Z,7.5
2023-04-15T08:06:14.407Z,7.5
2023-04-15T08:16:02.930Z,7.0
2023-04-15T08:26:03.010Z,7.5
2023-04-15T08:36:03.148Z,7.0
2023-04-15T08:41:03.357Z,7.5
2023-04-15T08:51:03.253Z,7.0
2023-04-15T09:06:03.403Z,7.5
2023-04-15T09:06:19.974Z,7.5
2023-04-15T09:11:03.486Z,7.0
2023-04-15T09:16:03.489Z,7.5
2023-04-15T09:26:03.629Z,7.0
2023-04-15T09:36:03.915Z,7.5
2023-04-15T09:41:03.723Z,8.0
2023-04-15T09:51:03.854Z,8.5
2023-04-15T10:01:03.977Z,8.0
2023-04-15T10:06:03.963Z,8.5
2023-04-15T10:06:25.515Z,8.5
2023-04-15T10:11:04.005Z,8.0
2023-04-15T10:16:04.842Z,8.5
2023-04-15T10:26:04.574Z,8.0
2023-04-15T10:36:04.283Z,8.5
2023-04-15T10:46:04.392Z,8.0
2023-04-15T10:51:04.421Z,8.5
2023-04-15T10:56:04.463Z,8.0
2023-04-15T11:01:04.527Z,8.5
2023-04-15T11:06:04.549Z,8.0
2023-04-15T11:06:42.761Z,8.0
2023-04-15T11:11:04.731Z,8.5
2023-04-15T11:16:04.695Z,8.0
2023-04-15T11:21:05.077Z,8.5
2023-04-15T11:26:05.065Z,8.0
2023-04-15T11:31:05.215Z,8.5
2023-04-15T11:41:05.157Z,8.0
2023-04-15T11:51:05.053Z,8.5
2023-04-15T11:56:05.058Z,9.0
2023-04-15T12:01:05.106Z,9.5
2023-04-15T12:06:05.215Z,9.0
2023-04-15T12:11:05.676Z,9.5
2023-04-15T12:21:05.361Z,9.0
2023-04-15T12:26:05.345Z,9.5
2023-04-15T12:36:05.406Z,9.0
2023-04-15T12:51:05.769Z,9.5
2023-04-15T13:01:05.739Z,9.0
2023-04-15T13:06:42.388Z,9.0
2023-04-15T13:16:05.842Z,9.5
2023-04-15T13:21:05.857Z,9.0
2023-04-15T13:36:06.085Z,9.5
2023-04-15T13:41:06.050Z,10.5
2023-04-15T13:46:06.120Z,10.0
2023-04-15T14:06:47.482Z,10.0
2023-04-15T14:11:06.367Z,10.5
2023-04-15T14:21:06.445Z,11.5
2023-04-15T14:26:06.488Z,11.0
2023-04-15T14:31:06.569Z,11.5
2023-04-15T14:41:06.647Z,11.0
2023-04-15T14:51:06.789Z,12.0
2023-04-15T14:56:06.808Z,12.5
2023-04-15T15:06:06.892Z,12.0
2023-04-15T15:06:52.934Z,12.0
2023-04-15T15:11:06.933Z,12.5
2023-04-15T15:21:07.018Z,12.0
2023-04-15T15:36:07.163Z,12.5
2023-04-15T15:41:07.207Z,12.0
2023-04-15T15:46:07.324Z,12.5
2023-04-15T16:06:58.421Z,12.5
2023-04-15T16:16:07.605Z,12.0
2023-04-15T16:21:07.632Z,12.5
2023-04-15T16:26:07.673Z,12.0
2023-04-15T16:36:07.764Z,12.5
2023-04-15T16:56:12.955Z,12.0
2023-04-15T17:01:08.060Z,12.5
2023-04-15T17:06:13.189Z,12.0
2023-04-15T17:16:08.179Z,12.5
2023-04-15T17:26:08.234Z,12.0
2023-04-15T17:51:08.540Z,12.5
2023-04-15T18:01:08.637Z,12.0
2023-04-15T18:06:08.624Z,12.5
2023-04-15T18:07:09.443Z,12.5
2023-04-15T18:21:08.759Z,12.0
2023-04-15T18:36:08.948Z,12.5
2023-04-15T18:46:09.056Z,12.0
2023-04-15T19:06:09.228Z,12.5
2023-04-15T19:07:14.981Z,12.5
2023-04-15T19:16:09.293Z,12.0
2023-04-15T19:31:09.489Z,11.5
2023-04-15T19:41:09.560Z,11.0
2023-04-15T19:46:09.625Z,11.5
2023-04-15T19:56:09.713Z,11.0
2023-04-15T20:01:09.799Z,11.5
2023-04-15T20:07:20.326Z,11.5
2023-04-15T20:11:09.850Z,11.0
2023-04-15T20:16:09.888Z,11.5
2023-04-15T20:26:09.996Z,11.0
2023-04-15T20:36:10.089Z,11.5
2023-04-15T21:01:10.368Z,11.0
2023-04-15T21:06:10.374Z,11.5
2023-04-15T21:07:25.832Z,11.5
2023-04-15T21:16:10.572Z,11.0
2023-04-15T21:21:10.530Z,11.5
2023-04-15T21:26:10.578Z,11.0
2023-04-15T21:41:10.784Z,11.5
2023-04-15T21:56:10.855Z,10.0
2023-04-15T22:01:12.486Z,10.5
2023-04-15T22:07:31.696Z,10.5
2023-04-15T22:16:11.065Z,10.0
2023-04-15T22:21:11.092Z,10.5
2023-04-15T22:26:11.128Z,10.0
2023-04-15T22:31:11.207Z,10.5
2023-04-15T22:36:11.249Z,10.0
2023-04-15T22:41:11.293Z,10.5
2023-04-15T22:46:11.357Z,10.0
2023-04-15T22:51:11.364Z,10.5
2023-04-15T23:01:11.476Z,10.0
2023-04-15T23:07:36.861Z,10.0
2023-04-15T23:11:11.573Z,10.5
2023-04-15T23:26:11.707Z,10.0
2023-04-15T23:36:11.808Z,10.5
2023-04-15T23:46:11.947Z,10.0
2023-04-15T23:56:12.004Z,9.5
